createdAt,value
2023-04-03T00:01:58.813Z,98808.31
2023-04-03T00:07:02.318Z,98813.53
2023-04-03T00:12:07.486Z,98805.78
2023-04-03T00:17:11.011Z,98822.22
2023-04-03T00:22:14.693Z,98822.22
2023-04-03T00:27:19.588Z,98814.44
2023-04-03T00:32:22.915Z,98823.06
2023-04-03T00:37:26.852Z,98822.34
2023-04-03T00:42:31.717Z,98826.75
2023-04-03T00:47:35.131Z,98820.66
2023-04-03T00:52:41.055Z,98818.91
2023-04-03T00:57:47.373Z,98821.38
2023-04-03T01:02:51.274Z,98818.88
2023-04-03T01:07:55.768Z,98824.06
2023-04-03T01:13:02.849Z,98826.66
2023-04-03T01:18:06.567Z,98828.47
2023-04-03T01:23:24.662Z,98825.88
2023-04-03T01:28:32.356Z,98830.16
2023-04-03T01:33:37.841Z,98834.53
2023-04-03T01:38:41.597Z,98833.72
2023-04-03T01:43:45.131Z,98831.06
2023-04-03T01:48:51.310Z,98829.22
2023-04-03T01:53:54.968Z,98834.47
2023-04-03T01:58:58.428Z,98832.72
2023-04-03T02:04:03.335Z,98831.81
2023-04-03T02:09:06.677Z,98835.31
2023-04-03T02:14:10.501Z,98837.94
2023-04-03T02:19:35.284Z,98838.75
2023-04-03T02:24:40.177Z,98840.53
2023-04-03T02:29:43.580Z,98839.69
2023-04-03T02:34:48.477Z,98827.63
2023-04-03T02:39:51.624Z,98840.53
2023-04-03T02:44:55.030Z,98845.81
2023-04-03T02:49:59.883Z,98838.84
2023-04-03T02:55:03.942Z,98842.16
2023-04-03T03:00:09.043Z,98831.84
2023-04-03T03:05:13.943Z,98838.84
2023-04-03T03:10:17.680Z,98839.72
2023-04-03T03:15:21.323Z,98838.91
2023-04-03T03:20:26.149Z,98844.91
2023-04-03T03:25:29.378Z,98848.28
2023-04-03T03:30:32.786Z,98844.91
2023-04-03T03:35:38.062Z,98847.41
2023-04-03T03:40:41.706Z,98840.50
2023-04-03T03:45:45.836Z,98851.75
2023-04-03T03:50:51.404Z,98852.59
2023-04-03T03:55:54.885Z,98852.53
2023-04-03T04:00:58.327Z,98860.28
2023-04-03T04:06:03.207Z,98860.31
2023-04-03T04:11:06.356Z,98865.50
2023-04-03T04:16:10.993Z,98860.25
2023-04-03T04:21:15.856Z,98861.81
2023-04-03T04:26:19.009Z,98870.38
2023-04-03T04:31:22.500Z,98872.22
2023-04-03T04:36:27.465Z,98866.78
2023-04-03T04:41:31.143Z,98869.22
2023-04-03T04:46:34.777Z,98880.38
2023-04-03T04:51:50.959Z,98866.28
2023-04-03T04:56:55.724Z,98884.34
2023-04-03T05:01:59.315Z,98891.31
2023-04-03T05:07:04.214Z,98886.16
2023-04-03T05:12:07.439Z,98887.47
2023-04-03T05:17:11.033Z,98871.22
2023-04-03T05:22:16.227Z,98880.88
2023-04-03T05:27:19.724Z,98885.13
2023-04-03T05:32:23.278Z,98900.56
2023-04-03T05:37:28.245Z,98898.59
2023-04-03T05:42:32.120Z,98892.41
2023-04-03T05:47:35.634Z,98902.44
2023-04-03T05:52:45.399Z,98893.88
2023-04-03T05:57:48.934Z,98897.00
2023-04-03T06:02:52.791Z,98901.44
2023-04-03T06:07:58.262Z,98902.31
2023-04-03T06:13:01.853Z,98900.09
2023-04-03T06:18:05.566Z,98917.28
2023-04-03T06:23:11.539Z,98912.88
2023-04-03T06:28:15.108Z,98916.06
2023-04-03T06:33:18.682Z,98924.41
2023-04-03T06:38:23.554Z,98918.31
2023-04-03T06:43:27.274Z,98924.53
2023-04-03T06:48:31.235Z,98926.03
2023-04-03T06:53:36.297Z,98926.19
2023-04-03T06:58:39.746Z,98919.13
2023-04-03T07:03:43.769Z,98931.00
2023-04-03T07:08:49.408Z,98934.56
2023-04-03T07:13:53.289Z,98932.53
2023-04-03T07:18:57.201Z,98931.06
2023-04-03T07:24:02.214Z,98925.81
2023-04-03T07:29:05.768Z,98931.09
2023-04-03T07:34:09.256Z,98941.06
2023-04-03T07:39:14.154Z,98935.16
2023-04-03T07:44:17.625Z,98931.16
2023-04-03T07:49:21.121Z,98938.81
2023-04-03T07:54:26.091Z,98943.00
2023-04-03T07:59:29.590Z,98944.88
2023-04-03T08:04:33.337Z,98936.78
2023-04-03T08:09:38.487Z,98946.34
2023-04-03T08:14:42.014Z,98955.00
2023-04-03T08:19:45.630Z,98945.28
2023-04-03T08:24:58.548Z,98950.06
2023-04-03T08:30:02.696Z,98951.75
2023-04-03T08:35:07.189Z,98946.19
2023-04-03T08:40:17.089Z,98959.00
2023-04-03T08:45:37.964Z,98956.13
2023-04-03T08:50:43.960Z,98956.66
2023-04-03T08:55:51.579Z,98954.28
2023-04-03T09:01:00.902Z,98958.66
2023-04-03T09:06:09.291Z,98959.41
2023-04-03T09:11:23.126Z,98960.59
2023-04-03T09:16:45.691Z,98957.09
2023-04-03T09:21:49.350Z,98969.84
2023-04-03T09:27:01.011Z,98973.88
2023-04-03T09:32:28.571Z,98979.59
2023-04-03T09:37:42.030Z,98962.22
2023-04-03T09:42:52.038Z,98967.69
2023-04-03T09:48:15.420Z,98981.72
2023-04-03T09:53:31.269Z,98983.47
2023-04-03T09:58:49.652Z,98985.28
2023-04-03T10:04:08.277Z,98990.88
2023-04-03T10:09:22.140Z,98976.50
2023-04-03T10:14:27.315Z,98983.47
2023-04-03T10:19:43.719Z,98987.88
2023-04-03T10:24:54.222Z,98989.31
2023-04-03T10:30:06.361Z,98986.72
2023-04-03T10:35:18.757Z,98996.91
2023-04-03T10:40:34.090Z,98991.19
2023-04-03T10:45:54.396Z,98997.72
2023-04-03T10:51:05.460Z,98998.50
2023-04-03T10:56:18.005Z,99006.47
2023-04-03T11:01:27.890Z,99000.97
2023-04-03T11:06:39.297Z,98986.72
2023-04-03T11:11:45.285Z,98994.38
2023-04-03T11:16:56.051Z,98992.75
2023-04-03T11:22:06.312Z,98992.19
2023-04-03T11:27:19.363Z,98999.47
2023-04-03T11:33:16.559Z,98996.09
2023-04-03T11:38:25.249Z,98992.22
2023-04-03T11:43:30.893Z,98985.94
2023-04-03T11:49:02.549Z,98974.44
2023-04-03T11:54:47.618Z,98987.41
2023-04-03T11:59:51.175Z,98995.97
2023-04-03T12:05:30.715Z,98990.22
2023-04-03T12:10:34.206Z,98996.06
2023-04-03T12:15:58.279Z,98984.75
2023-04-03T12:21:04.479Z,98994.28
2023-04-03T12:26:24.463Z,99001.50
2023-04-03T12:31:42.420Z,99000.09
2023-04-03T12:37:01.465Z,98989.84
2023-04-03T12:42:17.391Z,98995.09
2023-04-03T12:47:34.168Z,98996.19
2023-04-03T12:52:50.375Z,98991.41
2023-04-03T12:57:54.703Z,98987.84
2023-04-03T13:02:58.786Z,98989.19
2023-04-03T13:08:07.216Z,98998.78
2023-04-03T13:13:13.357Z,98989.72
2023-04-03T13:18:32.238Z,98992.38
2023-04-03T13:23:40.927Z,98995.53
2023-04-03T13:28:45.090Z,98994.81
2023-04-03T13:33:57.650Z,98988.28
2023-04-03T13:39:06.243Z,98998.66
2023-04-03T13:44:32.011Z,98987.47
2023-04-03T13:49:41.424Z,99002.72
2023-04-03T13:54:49.999Z,99003.72
2023-04-03T13:59:54.101Z,99000.41
2023-04-03T14:05:02.333Z,99000.34
2023-04-03T14:10:09.241Z,99004.06
2023-04-03T14:15:20.430Z,98987.13
2023-04-03T14:20:26.813Z,98996.94
2023-04-03T14:25:32.286Z,99007.91
2023-04-03T14:30:36.751Z,99010.34
2023-04-03T14:35:40.400Z,99013.34
2023-04-03T14:40:45.230Z,99018.72
2023-04-03T14:45:49.080Z,99026.81
2023-04-03T14:51:04.580Z,99023.81
2023-04-03T14:56:16.800Z,99033.69
2023-04-03T15:01:21.043Z,99032.84
2023-04-03T15:06:24.612Z,99034.75
2023-04-03T15:11:29.590Z,99031.50
2023-04-03T15:16:33.062Z,99030.81
2023-04-03T15:21:37.098Z,99037.31
2023-04-03T15:26:42.720Z,99040.91
2023-04-03T15:31:46.149Z,99047.09
2023-04-03T15:36:49.839Z,99053.31
2023-04-03T15:41:54.930Z,99038.75
2023-04-03T15:46:58.456Z,99053.59
2023-04-03T15:52:02.162Z,99057.25
2023-04-03T15:57:07.068Z,99058.28
2023-04-03T16:02:15.167Z,99062.69
2023-04-03T16:07:18.720Z,99063.72
2023-04-03T16:12:23.629Z,99057.09
2023-04-03T16:17:28.741Z,99055.34
2023-04-03T16:22:32.742Z,99064.16
2023-04-03T16:27:37.688Z,99064.22
2023-04-03T16:32:42.285Z,99069.41
2023-04-03T16:37:45.803Z,99076.50
2023-04-03T16:42:50.867Z,99071.38
2023-04-03T16:47:54.347Z,99083.56
2023-04-03T16:52:57.950Z,99080.94
2023-04-03T16:58:02.826Z,99078.50
2023-04-03T17:03:06.430Z,99081.16
2023-04-03T17:08:14.161Z,99095.06
2023-04-03T17:13:21.866Z,99104.56
2023-04-03T17:18:25.400Z,99101.16
2023-04-03T17:23:30.677Z,99107.19
2023-04-03T17:28:35.576Z,99111.50
2023-04-03T17:33:39.109Z,99112.44
2023-04-03T17:38:42.651Z,99115.13
2023-04-03T17:43:47.822Z,99112.53
2023-04-03T17:48:51.625Z,99110.75
2023-04-03T17:53:55.125Z,99117.72
2023-04-03T17:59:00.187Z,99122.97
2023-04-03T18:04:05.445Z,99121.28
2023-04-03T18:09:11.458Z,99115.22
2023-04-03T18:14:19.121Z,99116.13
2023-04-03T18:19:23.714Z,99114.44
2023-04-03T18:24:27.583Z,99110.94
2023-04-03T18:29:35.054Z,99101.53
2023-04-03T18:34:38.489Z,99104.16
2023-04-03T18:39:41.990Z,99100.66
2023-04-03T18:44:49.735Z,99097.19
2023-04-03T18:49:53.300Z,99100.66
2023-04-03T18:54:57.048Z,99091.13
2023-04-03T19:00:01.949Z,99099.81
2023-04-03T19:05:06.824Z,99095.53
2023-04-03T19:10:17.170Z,99091.22
2023-04-03T19:15:24.576Z,99082.63
2023-04-03T19:20:28.579Z,99084.38
2023-04-03T19:25:32.126Z,99083.50
2023-04-03T19:30:39.537Z,99082.66
2023-04-03T19:35:43.341Z,99092.16
2023-04-03T19:40:47.612Z,99086.97
2023-04-03T19:45:53.710Z,99082.69
2023-04-03T19:50:57.177Z,99077.50
2023-04-03T19:56:00.964Z,99085.28
2023-04-03T20:01:07.020Z,99088.78
2023-04-03T20:06:10.689Z,99080.16
2023-04-03T20:11:14.416Z,99069.81
2023-04-03T20:16:22.531Z,99073.25
2023-04-03T20:21:30.758Z,99080.19
2023-04-03T20:26:37.391Z,99080.19
2023-04-03T20:31:43.453Z,99069.78
2023-04-03T20:36:49.676Z,99079.28
2023-04-03T20:41:53.708Z,99077.59
2023-04-03T20:46:59.218Z,99081.91
2023-04-03T20:52:04.969Z,99074.13
2023-04-03T20:57:08.438Z,99075.88
2023-04-03T21:02:13.448Z,99071.50
2023-04-03T21:07:54.636Z,99068.06
2023-04-03T21:13:35.022Z,99064.59
2023-04-03T21:19:08.761Z,99061.13
2023-04-03T21:24:12.712Z,99049.03
2023-04-03T21:29:16.828Z,99052.50
2023-04-03T21:34:23.697Z,99052.47
2023-04-03T21:39:27.325Z,99050.75
2023-04-03T21:44:32.425Z,99042.13
2023-04-03T21:49:37.358Z,99036.94
2023-04-03T21:54:40.785Z,99043.88
2023-04-03T21:59:45.468Z,99038.69
2023-04-03T22:04:50.441Z,99036.94
2023-04-03T22:09:53.625Z,99036.91
2023-04-03T22:14:57.076Z,99024.00
2023-04-03T22:20:02.034Z,99044.72
2023-04-03T22:25:07.509Z,99034.41
2023-04-03T22:30:11.696Z,99024.94
2023-04-03T22:35:16.709Z,99038.69
2023-04-03T22:40:20.479Z,99037.88
2023-04-03T22:45:23.951Z,99037.88
2023-04-03T22:50:29.230Z,99036.13
2023-04-03T22:55:32.789Z,99038.72
2023-04-03T23:00:36.410Z,99028.41
2023-04-03T23:05:42.195Z,99035.31
2023-04-03T23:10:46.040Z,99029.28
2023-04-03T23:15:54.402Z,99020.63
2023-04-03T23:21:00.909Z,99025.88
2023-04-03T23:26:04.488Z,99003.41
2023-04-03T23:31:08.277Z,99022.38
2023-04-03T23:36:16.281Z,99012.88
2023-04-03T23:41:19.792Z,99016.34
2023-04-03T23:46:23.343Z,99010.28
2023-04-03T23:51:28.406Z,99003.38
2023-04-03T23:56:32.384Z,99008.56
